Home > Products > Valid Products > MTR

000
SAUS46 KSGX 010753
MTRCZZ
METAR KCZZ 010752Z AUTO 04004KT 02/00 A2998 RMK AO1 SLP133 T00170000
402500017





000
SAUS46 KSGX 010653
MTRCZZ
METAR KCZZ 010652Z AUTO 05005KT 04/02 A2998 RMK AO1 SLP130 T00440017





000
SAUS46 KSGX 010653
MTRCZZ
METAR KCZZ 010652Z AUTO 05005KT 04/02 A2998 RMK AO1 SLP130 T00440017





000
SAUS46 KSGX 010553
MTRCZZ
METAR KCZZ 010552Z AUTO 06004KT 05/03 A2997 RMK AO1 SLP129 T00500028
10222 20050 53002





000
SAUS46 KSGX 010553
MTRCZZ
METAR KCZZ 010552Z AUTO 06004KT 05/03 A2997 RMK AO1 SLP129 T00500028
10222 20050 53002





000
SAUS46 KSGX 010453
MTRCZZ
METAR KCZZ 010452Z AUTO 03003KT 08/04 A2997 RMK AO1 SLP128 T00780039





000
SAUS46 KSGX 010453
MTRCZZ
METAR KCZZ 010452Z AUTO 03003KT 08/04 A2997 RMK AO1 SLP128 T00780039





000
SAUS46 KSGX 010353
MTRCZZ
METAR KCZZ 010352Z AUTO 00000KT 10/06 A2996 RMK AO1 SLP127 T01000061





000
SAUS46 KSGX 010353
MTRCZZ
METAR KCZZ 010352Z AUTO 00000KT 10/06 A2996 RMK AO1 SLP127 T01000061





000
SAUS46 KSGX 010253
MTRCZZ
METAR KCZZ 010252Z AUTO 20004KT 13/08 A2997 RMK AO1 SLP130 T01330078
51006





000
SAUS46 KSGX 010153
MTRCZZ
METAR KCZZ 010152Z AUTO 20007KT 17/08 A2996 RMK AO1 SLP131 T01670083





000
SAUS46 KSGX 010153
MTRCZZ
METAR KCZZ 010152Z AUTO 20007KT 17/08 A2996 RMK AO1 SLP131 T01670083





000
SAUS46 KSGX 010053
MTRCZZ
METAR KCZZ 010052Z AUTO 23012KT 19/07 A2996 RMK AO1 SLP126 T01940072





000
SAUS46 KSGX 312353
MTRCZZ
METAR KCZZ 312352Z AUTO 22014KT 22/03 A2995 RMK AO1 SLP120 T02220033
10250 20222 55013





000
SAUS46 KSGX 312353
MTRCZZ
METAR KCZZ 312352Z AUTO 22014KT 22/03 A2995 RMK AO1 SLP120 T02220033
10250 20222 55013





000
SAUS46 KSGX 312253
MTRCZZ
METAR KCZZ 312252Z AUTO 22014KT 24/M03 A2994 RMK AO1 SLP117
T02441028





000
SAUS46 KSGX 312253
MTRCZZ
METAR KCZZ 312252Z AUTO 22014KT 24/M03 A2994 RMK AO1 SLP117
T02441028





000
SAUS46 KSGX 312153
MTRCZZ
METAR KCZZ 312152Z AUTO 23011G19KT 25/M04 A2996 RMK AO1 SLP123
T02501044





000
SAUS46 KSGX 312153
MTRCZZ
METAR KCZZ 312152Z AUTO 23011G19KT 25/M04 A2996 RMK AO1 SLP123
T02501044





000
SAUS46 KSGX 312053
MTRCZZ
METAR KCZZ 312052Z AUTO 25013G18KT 24/M04 A2999 RMK AO1 SLP131
T02441044 58009





000
SAUS46 KSGX 312053
MTRCZZ
METAR KCZZ 312052Z AUTO 25013G18KT 24/M04 A2999 RMK AO1 SLP131
T02441044 58009





000
SAUS46 KSGX 311953
MTRCZZ
METAR KCZZ 311952Z AUTO 25011KT 24/M05 A3001 RMK AO1 SLP138
T02391050





000
SAUS46 KSGX 311953
MTRCZZ
METAR KCZZ 311952Z AUTO 25011KT 24/M05 A3001 RMK AO1 SLP138
T02391050





000
SAUS46 KSGX 311853
MTRCZZ
METAR KCZZ 311852Z AUTO 24011G19KT 24/M04 A3002 RMK AO1 SLP143
T02391044





000
SAUS46 KSGX 311753
MTRCZZ
METAR KCZZ 311752Z AUTO 21010KT 23/M01 A3002 RMK AO1 SLP141
T02331011 10233 20039 53006





000
SAUS46 KSGX 311753
MTRCZZ
METAR KCZZ 311752Z AUTO 21010KT 23/M01 A3002 RMK AO1 SLP141
T02331011 10233 20039 53006





000
SAUS46 KSGX 311653
MTRCZZ
METAR KCZZ 311652Z AUTO 23005KT 22/M03 A3001 RMK AO1 SLP138
T02221028





000
SAUS46 KSGX 311553
MTRCZZ
METAR KCZZ 311552Z AUTO 00000KT 18/M01 A3000 RMK AO1 SLP136
T01781006





000
SAUS46 KSGX 311453
MTRCZZ
METAR KCZZ 311452Z AUTO 06005KT 11/00 A3000 RMK AO1 SLP137 T01110000
51003





000
SAUS46 KSGX 311453
MTRCZZ
METAR KCZZ 311452Z AUTO 06005KT 11/00 A3000 RMK AO1 SLP137 T01110000
51003





000
SAUS46 KSGX 311353
MTRCZZ
METAR KCZZ 311352Z AUTO 06005KT 04/M02 A3000 RMK AO1 SLP141
T00391022





000
SAUS46 KSGX 311353
MTRCZZ
METAR KCZZ 311352Z AUTO 06005KT 04/M02 A3000 RMK AO1 SLP141
T00391022





000
SAUS46 KSGX 311253
MTRCZZ
METAR KCZZ 311252Z AUTO 06007KT 06/M02 A3000 RMK AO1 SLP137
T00561017





000
SAUS46 KSGX 311253
MTRCZZ
METAR KCZZ 311252Z AUTO 06007KT 06/M02 A3000 RMK AO1 SLP137
T00561017





000
SAUS46 KSGX 311153
MTRCZZ
METAR KCZZ 311152Z AUTO 05006KT 06/M02 A2999 RMK AO1 SLP132
T00611017 10106 20050 56008





000
SAUS46 KSGX 311153
MTRCZZ
METAR KCZZ 311152Z AUTO 05006KT 06/M02 A2999 RMK AO1 SLP132
T00611017 10106 20050 56008





000
SAUS46 KSGX 311053
MTRCZZ
METAR KCZZ 311052Z AUTO 04007KT 07/M02 A2999 RMK AO1 SLP132
T00671017





000
SAUS46 KSGX 311053
MTRCZZ
METAR KCZZ 311052Z AUTO 04007KT 07/M02 A2999 RMK AO1 SLP132
T00671017





000
SAUS46 KSGX 310953
MTRCZZ
METAR KCZZ 310952Z AUTO 06007KT 07/M02 A3000 RMK AO1 SLP134
T00671017





000
SAUS46 KSGX 310853
MTRCZZ
METAR KCZZ 310852Z AUTO 04006KT 08/M01 A3002 RMK AO1 SLP137
T00781011 56005





000
SAUS46 KSGX 310753
MTRCZZ
METAR KCZZ 310752Z AUTO 05006KT 08/00 A3002 RMK AO1 SLP139 T00830000
402890039





000
SAUS46 KSGX 310653
MTRCZZ
METAR KCZZ 310652Z AUTO 06007KT 08/01 A3003 RMK AO1 SLP142 T00830006





000
SAUS46 KSGX 310653
MTRCZZ
METAR KCZZ 310652Z AUTO 06007KT 08/01 A3003 RMK AO1 SLP142 T00830006





000
SAUS46 KSGX 310553
MTRCZZ
METAR KCZZ 310552Z AUTO 05007KT 09/01 A3003 RMK AO1 SLP145 T00890006
10261 20089 51010





000
SAUS46 KSGX 310553
MTRCZZ
METAR KCZZ 310552Z AUTO 05007KT 09/01 A3003 RMK AO1 SLP145 T00890006
10261 20089 51010





000
SAUS46 KSGX 310453
MTRCZZ
METAR KCZZ 310452Z AUTO 04006KT 12/01 A3003 RMK AO1 SLP144 T01170011





000
SAUS46 KSGX 310353
MTRCZZ
METAR KCZZ 310352Z AUTO 03005KT 13/02 A3003 RMK AO1 SLP144 T01330022





000
SAUS46 KSGX 310353
MTRCZZ
METAR KCZZ 310352Z AUTO 03005KT 13/02 A3003 RMK AO1 SLP144 T01330022





000
SAUS46 KSGX 310253
MTRCZZ
METAR KCZZ 310252Z AUTO 01003KT 18/04 A3000 RMK AO1 SLP140 T01780039
53009





000
SAUS46 KSGX 310153
MTRCZZ
METAR KCZZ 310152Z AUTO 22007KT 21/04 A2998 RMK AO1 SLP135 T02060039





000
SAUS46 KSGX 310153
MTRCZZ
METAR KCZZ 310152Z AUTO 22007KT 21/04 A2998 RMK AO1 SLP135 T02060039





000
SAUS46 KSGX 310053
MTRCZZ
METAR KCZZ 310052Z AUTO 22009KT 24/05 A2998 RMK AO1 SLP129 T02390050





000
SAUS46 KSGX 310053
MTRCZZ
METAR KCZZ 310052Z AUTO 22009KT 24/05 A2998 RMK AO1 SLP129 T02390050





000
SAUS46 KSGX 302353
MTRCZZ
METAR KCZZ 302352Z AUTO 23010KT 26/07 A2997 RMK AO1 SLP127 T02610072
10289 20256 55007





000
SAUS46 KSGX 302353
MTRCZZ
METAR KCZZ 302352Z AUTO 23010KT 26/07 A2997 RMK AO1 SLP127 T02610072
10289 20256 55007





000
SAUS46 KSGX 302253
MTRCZZ
METAR KCZZ 302252Z AUTO 22013KT 27/04 A2997 RMK AO1 SLP124 T02670039





000
SAUS46 KSGX 302253
MTRCZZ
METAR KCZZ 302252Z AUTO 22013KT 27/04 A2997 RMK AO1 SLP124 T02670039





000
SAUS46 KSGX 302153
MTRCZZ
METAR KCZZ 302152Z AUTO 21014G18KT 28/M02 A2998 RMK AO1 SLP125
T02831017





000
SAUS46 KSGX 302053
MTRCZZ
METAR KCZZ 302052Z AUTO 22014G20KT 29/M05 A3000 RMK AO1 SLP130
T02891050 58016





000
SAUS46 KSGX 301953
MTRCZZ
METAR KCZZ 301952Z AUTO 23007G14KT 28/M08 A3002 RMK AO1 SLP138
T02781078





000
SAUS46 KSGX 301853
MTRCZZ
METAR KCZZ 301852Z AUTO 21007KT 27/M07 A3003 RMK AO1 SLP142
T02721067





000
SAUS46 KSGX 301853
MTRCZZ
METAR KCZZ 301852Z AUTO 21007KT 27/M07 A3003 RMK AO1 SLP142
T02721067





000
SAUS46 KSGX 301753
MTRCZZ
METAR KCZZ 301752Z AUTO 20006KT 26/M07 A3005 RMK AO1 SLP147
T02561072 10256 20039 51004





000
SAUS46 KSGX 301753
MTRCZZ
METAR KCZZ 301752Z AUTO 20006KT 26/M07 A3005 RMK AO1 SLP147
T02561072 10256 20039 51004





000
SAUS46 KSGX 301653
MTRCZZ
METAR KCZZ 301652Z AUTO VRB03KT 24/M05 A3005 RMK AO1 SLP148
T02391050





000
SAUS46 KSGX 301553
MTRCZZ
METAR KCZZ 301552Z AUTO 00000KT 18/00 A3004 RMK AO1 SLP150 T01830000





000
SAUS46 KSGX 301453
MTRCZZ
METAR KCZZ 301452Z AUTO 06004KT 10/00 A3004 RMK AO1 SLP153 T01000000
53008





000
SAUS46 KSGX 301353
MTRCZZ
METAR KCZZ 301352Z AUTO 04006KT 04/M02 A3003 RMK AO1 SLP151
T00441022





000
SAUS46 KSGX 301353
MTRCZZ
METAR KCZZ 301352Z AUTO 04006KT 04/M02 A3003 RMK AO1 SLP151
T00441022





000
SAUS46 KSGX 301253
MTRCZZ
METAR KCZZ 301252Z AUTO 05005KT 07/M02 A3001 RMK AO1 SLP142
T00671022





000
SAUS46 KSGX 301253
MTRCZZ
METAR KCZZ 301252Z AUTO 05005KT 07/M02 A3001 RMK AO1 SLP142
T00671022





000
SAUS46 KSGX 301153
MTRCZZ
METAR KCZZ 301152Z AUTO 05007KT 05/M02 A3001 RMK AO1 SLP140
T00501022 10122 20050 55007





000
SAUS46 KSGX 301153
MTRCZZ
METAR KCZZ 301152Z AUTO 05007KT 05/M02 A3001 RMK AO1 SLP140
T00501022 10122 20050 55007





000
SAUS46 KSGX 301053
MTRCZZ
METAR KCZZ 301052Z AUTO 05006KT 07/M02 A3001 RMK AO1 SLP137
T00671022





000
SAUS46 KSGX 301053
MTRCZZ
METAR KCZZ 301052Z AUTO 05006KT 07/M02 A3001 RMK AO1 SLP137
T00671022





000
SAUS46 KSGX 300953
MTRCZZ
METAR KCZZ 300952Z AUTO 06006KT 06/M02 A3002 RMK AO1 SLP142
T00611017





000
SAUS46 KSGX 300853
MTRCZZ
METAR KCZZ 300852Z AUTO 04004KT 08/01 A3003 RMK AO1 SLP144 T00780006
58008





000
SAUS46 KSGX 300753
MTRCZZ
METAR KCZZ 300752Z AUTO 05005KT 09/03 A3004 RMK AO1 SLP146 T00940028
402830061





000
SAUS46 KSGX 300653
MTRCZZ
METAR KCZZ 300652Z AUTO 06006KT 11/03 A3005 RMK AO1 SLP149 T01060033





000
SAUS46 KSGX 300653
MTRCZZ
METAR KCZZ 300652Z AUTO 06006KT 11/03 A3005 RMK AO1 SLP149 T01060033





000
SAUS46 KSGX 300553
MTRCZZ
METAR KCZZ 300552Z AUTO 05004KT 12/04 A3006 RMK AO1 SLP151 T01170039
10261 20117 51011





000
SAUS46 KSGX 300553
MTRCZZ
METAR KCZZ 300552Z AUTO 05004KT 12/04 A3006 RMK AO1 SLP151 T01170039
10261 20117 51011





000
SAUS46 KSGX 300453
MTRCZZ
METAR KCZZ 300452Z AUTO 04004KT 12/04 A3005 RMK AO1 SLP152 T01220039





000
SAUS46 KSGX 300353
MTRCZZ
METAR KCZZ 300352Z AUTO 01003KT 14/04 A3004 RMK AO1 SLP148 T01390044





000
SAUS46 KSGX 300353
MTRCZZ
METAR KCZZ 300352Z AUTO 01003KT 14/04 A3004 RMK AO1 SLP148 T01390044





000
SAUS46 KSGX 300253
MTRCZZ
METAR KCZZ 300252Z AUTO 00000KT 17/05 A3002 RMK AO1 SLP147 T01670050
53006





000
SAUS46 KSGX 300253
MTRCZZ
METAR KCZZ 300252Z AUTO 00000KT 17/05 A3002 RMK AO1 SLP147 T01670050
53006





000
SAUS46 KSGX 300153
MTRCZZ
METAR KCZZ 300152Z AUTO 21008KT 20/06 A3001 RMK AO1 SLP143 T02000056





000
SAUS46 KSGX 300053
MTRCZZ
METAR KCZZ 300052Z AUTO 22012KT 23/02 A3001 RMK AO1 SLP138 T02280022





000
SAUS46 KSGX 300053
MTRCZZ
METAR KCZZ 300052Z AUTO 22012KT 23/02 A3001 RMK AO1 SLP138 T02280022





000
SAUS46 KSGX 292353
MTRCZZ
METAR KCZZ 292352Z AUTO 22010KT 26/M01 A3000 RMK AO1 SLP135
T02561006 10283 20244 56008





000
SAUS46 KSGX 292353
MTRCZZ
METAR KCZZ 292352Z AUTO 22010KT 26/M01 A3000 RMK AO1 SLP135
T02561006 10283 20244 56008





000
SAUS46 KSGX 292253
MTRCZZ
METAR KCZZ 292252Z AUTO 22007KT 27/02 A3000 RMK AO1 SLP135 T02670017





000
SAUS46 KSGX 292253
MTRCZZ
METAR KCZZ 292252Z AUTO 22007KT 27/02 A3000 RMK AO1 SLP135 T02670017





000
SAUS46 KSGX 292153
MTRCZZ
METAR KCZZ 292152Z AUTO 23012KT 26/03 A3002 RMK AO1 SLP140 T02610028





000
SAUS46 KSGX 292053
MTRCZZ
METAR KCZZ 292052Z AUTO 24011G15KT 27/M04 A3003 RMK AO1 SLP142
T02721044 58015





000
SAUS46 KSGX 291953
MTRCZZ
METAR KCZZ 291952Z AUTO 23009G15KT 200V270 28/M04 A3005 RMK AO1
SLP147 T02831044





000
SAUS46 KSGX 291953
MTRCZZ
METAR KCZZ 291952Z AUTO 23009G15KT 200V270 28/M04 A3005 RMK AO1
SLP147 T02831044





000
SAUS46 KSGX 291853
MTRCZZ
METAR KCZZ 291852Z AUTO VRB05KT 27/M04 A3006 RMK AO1 SLP152
T02671044





000
SAUS46 KSGX 291853
MTRCZZ
METAR KCZZ 291852Z AUTO VRB05KT 27/M04 A3006 RMK AO1 SLP152
T02671044





000
SAUS46 KSGX 291753
MTRCZZ
METAR KCZZ 291752Z AUTO 00000KT 25/M02 A3007 RMK AO1 SLP157
T02501022 10256 20067 56003





000
SAUS46 KSGX 291753
MTRCZZ
METAR KCZZ 291752Z AUTO 00000KT 25/M02 A3007 RMK AO1 SLP157
T02501022 10256 20067 56003





000
SAUS46 KSGX 291653
MTRCZZ
METAR KCZZ 291652Z AUTO 00000KT 22/M01 A3008 RMK AO1 SLP162
T02171006





000
SAUS46 KSGX 291553
MTRCZZ
METAR KCZZ 291552Z AUTO 00000KT 18/02 A3008 RMK AO1 SLP162 T01830017





000
SAUS46 KSGX 291453
MTRCZZ
METAR KCZZ 291452Z AUTO 06006KT 09/02 A3008 RMK AO1 SLP169 T00940017
53009





000
SAUS46 KSGX 291353
MTRCZZ
METAR KCZZ 291352Z AUTO 05005KT 07/01 A3007 RMK AO1 SLP162 T00720006





000
SAUS46 KSGX 291353
MTRCZZ
METAR KCZZ 291352Z AUTO 05005KT 07/01 A3007 RMK AO1 SLP162 T00720006





000
SAUS46 KSGX 291253
MTRCZZ
METAR KCZZ 291252Z AUTO 04006KT 08/01 A3006 RMK AO1 SLP154 T00830006





000
SAUS46 KSGX 291253
MTRCZZ
METAR KCZZ 291252Z AUTO 04006KT 08/01 A3006 RMK AO1 SLP154 T00830006





000
SAUS46 KSGX 291153
MTRCZZ
METAR KCZZ 291152Z AUTO 05006KT 08/01 A3006 RMK AO1 SLP152 T00780006
10111 20061 56010





000
SAUS46 KSGX 291153
MTRCZZ
METAR KCZZ 291152Z AUTO 05006KT 08/01 A3006 RMK AO1 SLP152 T00780006
10111 20061 56010





000
SAUS46 KSGX 291053
MTRCZZ
METAR KCZZ 291052Z AUTO 04006KT 08/01 A3006 RMK AO1 SLP151 T00780011





000
SAUS46 KSGX 290953
MTRCZZ
METAR KCZZ 290952Z AUTO 04004KT 08/02 A3007 RMK AO1 SLP153 T00830017





000
SAUS46 KSGX 290853
MTRCZZ
METAR KCZZ 290852Z AUTO 05007KT 08/02 A3009 RMK AO1 SLP161 T00830017
58003





000
SAUS46 KSGX 290853
MTRCZZ
METAR KCZZ 290852Z AUTO 05007KT 08/02 A3009 RMK AO1 SLP161 T00830017
58003





    US Dept of Commerce
    National Oceanic and Atmospheric Administration
    National Weather Service
    1325 East West Highway
    Silver Spring, MD 20910
    Page Author: NWS Internet Services Team
Disclaimer
Information Quality
Credits
Glossary
Privacy Policy
Freedom of Information Act (FOIA)
About Us
Career Opportunities